createdAt,value
2023-02-08T00:00:16.705Z,101119.47
2023-02-08T00:01:22.125Z,101117.56
2023-02-08T00:02:27.471Z,101117.31
2023-02-08T00:03:31.186Z,101122.75
2023-02-08T00:04:34.990Z,101123.28
2023-02-08T00:05:38.631Z,101124.09
2023-02-08T00:06:42.334Z,101092.88
2023-02-08T00:07:45.967Z,101129.03
2023-02-08T00:08:49.742Z,101131.75
2023-02-08T00:09:53.387Z,101130.63
2023-02-08T00:10:57.013Z,101134.47
2023-02-08T00:12:00.797Z,101139.91
2023-02-08T00:13:04.578Z,101127.63
2023-02-08T00:14:08.201Z,101127.13
2023-02-08T00:15:12.025Z,101135.81
2023-02-08T00:16:17.024Z,101067.88
2023-02-08T00:17:20.672Z,101137.16
2023-02-08T00:18:26.122Z,101137.16
2023-02-08T00:19:29.796Z,101139.63
2023-02-08T00:20:33.499Z,101143.97
2023-02-08T00:21:37.133Z,101139.06
2023-02-08T00:22:40.884Z,101109.44
2023-02-08T00:23:45.135Z,101105.91
2023-02-08T00:24:48.815Z,101145.31
2023-02-08T00:25:52.776Z,101145.31
2023-02-08T00:26:56.593Z,101149.94
2023-02-08T00:28:00.310Z,101100.19
2023-02-08T00:29:03.988Z,101159.47
2023-02-08T00:30:08.589Z,101150.22
2023-02-08T00:31:12.445Z,101137.69
2023-02-08T00:32:16.267Z,101155.09
2023-02-08T00:33:19.930Z,101145.03
2023-02-08T00:34:25.229Z,101154.00
2023-02-08T00:35:28.929Z,101150.75
2023-02-08T00:36:32.617Z,101159.44
2023-02-08T00:37:36.208Z,101152.09
2023-02-08T00:38:39.791Z,101157.78
2023-02-08T00:39:43.477Z,101102.91
2023-02-08T00:40:47.190Z,101131.47
2023-02-08T00:41:51.184Z,101152.06
2023-02-08T00:42:54.981Z,101152.34
2023-02-08T00:43:58.617Z,101126.56
2023-02-08T00:45:02.481Z,101165.09
2023-02-08T00:46:06.352Z,101163.47
2023-02-08T00:47:10.062Z,101152.09
2023-02-08T00:48:13.989Z,101136.34
2023-02-08T00:49:17.757Z,101167.53
2023-02-08T00:50:23.092Z,101178.69
2023-02-08T00:51:26.770Z,101172.44
2023-02-08T00:52:30.580Z,101168.03
2023-02-08T00:53:37.577Z,101162.38
2023-02-08T00:54:41.351Z,101175.41
2023-02-08T00:55:51.176Z,101121.88
2023-02-08T00:56:54.835Z,101181.63
2023-02-08T00:57:58.825Z,101173.19
2023-02-08T00:59:02.788Z,101167.22
2023-02-08T01:00:07.984Z,101137.88
2023-02-08T01:01:12.592Z,101182.44
2023-02-08T01:02:16.560Z,101178.63
2023-02-08T01:03:28.169Z,101175.34
2023-02-08T01:04:32.030Z,101175.34
2023-02-08T01:05:38.882Z,101175.31
2023-02-08T01:06:43.160Z,101180.22
2023-02-08T01:07:47.077Z,101174.50
2023-02-08T01:08:50.784Z,101172.88
2023-02-08T01:09:54.453Z,101176.41
2023-02-08T01:11:04.899Z,101177.72
2023-02-08T01:12:08.666Z,101181.81
2023-02-08T01:13:12.369Z,101175.81
2023-02-08T01:14:16.278Z,101188.84
2023-02-08T01:15:20.360Z,101181.22
2023-02-08T01:16:33.481Z,101189.59
2023-02-08T01:17:40.363Z,101186.06
2023-02-08T01:18:46.038Z,101184.97
2023-02-08T01:19:49.920Z,101183.88
2023-02-08T01:20:55.231Z,101181.66
2023-02-08T01:21:58.888Z,101184.91
2023-02-08T01:23:02.548Z,101188.19
2023-02-08T01:24:07.215Z,101183.56
2023-02-08T01:25:10.972Z,101190.09
2023-02-08T01:26:15.358Z,101189.28
2023-02-08T01:27:18.999Z,101190.63
2023-02-08T01:28:22.789Z,101193.06
2023-02-08T01:29:26.480Z,101196.03
2023-02-08T01:30:30.328Z,101168.03
2023-02-08T01:31:35.993Z,101162.91
2023-02-08T01:32:39.761Z,101200.06
2023-02-08T01:33:43.468Z,101197.91
2023-02-08T01:34:47.159Z,101195.72
2023-02-08T01:35:52.817Z,101150.59
2023-02-08T01:36:58.102Z,101168.00
2023-02-08T01:38:01.888Z,101203.28
2023-02-08T01:39:07.205Z,101203.00
2023-02-08T01:40:12.072Z,101204.31
2023-02-08T01:41:17.486Z,101205.66
2023-02-08T01:42:21.482Z,101202.94
2023-02-08T01:43:27.206Z,101205.13
2023-02-08T01:45:07.241Z,101179.31
2023-02-08T01:46:10.845Z,101206.41
2023-02-08T01:47:14.599Z,101203.94
2023-02-08T01:48:23.304Z,101214.25
2023-02-08T01:49:29.827Z,101210.97
2023-02-08T01:50:41.527Z,101221.34
2023-02-08T01:51:50.912Z,101214.50
2023-02-08T01:52:56.718Z,101220.19
2023-02-08T01:54:06.411Z,101218.00
2023-02-08T01:55:18.507Z,101226.13
2023-02-08T01:56:35.228Z,101226.38
2023-02-08T01:57:39.152Z,101219.84
2023-02-08T01:58:45.757Z,101229.06
2023-02-08T02:00:14.283Z,101226.03
2023-02-08T02:01:18.305Z,101227.63
2023-02-08T02:02:24.040Z,101223.81
2023-02-08T02:04:46.039Z,101232.19
2023-02-08T02:05:53.133Z,101229.19
2023-02-08T02:07:09.547Z,101233.75
2023-02-08T02:08:15.210Z,101214.47
2023-02-08T02:09:23.898Z,101241.59
2023-02-08T02:10:32.336Z,101236.66
2023-02-08T02:11:38.452Z,101238.84
2023-02-08T02:12:43.217Z,101237.47
2023-02-08T02:13:48.938Z,101239.13
2023-02-08T02:16:09.502Z,101236.31
2023-02-08T02:17:19.405Z,101244.22
2023-02-08T02:18:26.085Z,101222.75
2023-02-08T02:19:52.814Z,101239.00
2023-02-08T02:21:22.927Z,101240.56
2023-02-08T02:23:00.664Z,101237.28
2023-02-08T02:24:38.871Z,101243.47
2023-02-08T02:26:09.568Z,101244.00
2023-02-08T02:27:40.082Z,101243.44
2023-02-08T20:02:27.690Z,100924.25
2023-02-08T20:03:31.938Z,100915.00
2023-02-08T20:04:35.926Z,100918.53
2023-02-08T20:05:39.864Z,100916.91
2023-02-08T20:06:44.223Z,100911.47
2023-02-08T20:07:48.183Z,100927.78
2023-02-08T20:08:51.976Z,100916.63
2023-02-08T20:09:55.841Z,100918.25
2023-02-08T20:10:59.611Z,100909.56
2023-02-08T20:12:03.504Z,100916.63
2023-02-08T20:13:07.384Z,100916.91
2023-02-08T20:14:13.278Z,100918.78
2023-02-08T20:15:17.220Z,100918.47
2023-02-08T20:16:21.677Z,100919.56
2023-02-08T20:17:32.583Z,100918.22
2023-02-08T20:18:36.442Z,100912.22
2023-02-08T20:19:40.193Z,100912.22
2023-02-08T20:20:44.546Z,100915.53
2023-02-08T20:21:48.532Z,100910.09
2023-02-08T20:22:52.341Z,100908.19
2023-02-08T20:23:56.598Z,100906.28
2023-02-08T20:25:03.214Z,100912.00
2023-02-08T20:26:12.484Z,100870.47
2023-02-08T20:27:16.450Z,100908.69
2023-02-08T20:28:20.262Z,100895.69
2023-02-08T20:29:24.147Z,100908.41
2023-02-08T20:30:28.157Z,100875.66
2023-02-08T20:31:33.746Z,100911.19
2023-02-08T20:32:39.090Z,100897.09
2023-02-08T20:33:42.748Z,100879.19
2023-02-08T20:34:58.527Z,100910.38
2023-02-08T20:36:10.682Z,100907.16
2023-02-08T20:37:14.526Z,100912.28
2023-02-08T20:38:18.237Z,100903.34
2023-02-08T20:39:22.151Z,100901.72
2023-02-08T20:40:25.920Z,100902.53
2023-02-08T20:41:30.024Z,100898.19
2023-02-08T20:42:33.827Z,100902.50
2023-02-08T20:43:38.079Z,100901.41
2023-02-08T20:44:41.740Z,100901.66
2023-02-08T20:45:45.806Z,100902.22
2023-02-08T20:46:49.829Z,100907.09
2023-02-08T20:47:55.207Z,100914.94
2023-02-08T20:49:00.672Z,100912.50
2023-02-08T20:50:16.823Z,100916.03
2023-02-08T20:51:24.402Z,100914.13
2023-02-08T20:52:28.049Z,100911.13
2023-02-08T20:53:31.685Z,100918.22
2023-02-08T20:54:35.454Z,100897.09
2023-02-08T20:55:42.334Z,100916.06
2023-02-08T20:56:46.216Z,100903.56
2023-02-08T20:57:49.978Z,100923.09
2023-02-08T20:58:54.066Z,100888.13
2023-02-08T20:59:57.817Z,100901.13
2023-02-08T21:01:01.729Z,100919.03
2023-02-08T21:02:05.811Z,100929.09
2023-02-08T21:03:11.116Z,100893.56
2023-02-08T21:04:15.378Z,100919.88
2023-02-08T21:05:19.642Z,100916.91
2023-02-08T21:06:25.657Z,100906.88
2023-02-08T21:07:29.387Z,100924.50
2023-02-08T21:08:37.281Z,100923.69
2023-02-08T21:09:40.916Z,100926.41
2023-02-08T21:10:44.958Z,100926.16
2023-02-08T21:11:49.180Z,100918.25
2023-02-08T21:12:53.001Z,100922.59
2023-02-08T21:13:57.558Z,100930.44
2023-02-08T21:15:01.288Z,100928.03
2023-02-08T21:16:06.809Z,100919.88
2023-02-08T21:17:11.237Z,100905.00
2023-02-08T21:18:16.674Z,100919.88
2023-02-08T21:19:20.979Z,100923.66
2023-02-08T21:20:24.906Z,100901.72
2023-02-08T21:21:28.684Z,100928.03
2023-02-08T21:22:32.386Z,100921.50
2023-02-08T21:23:36.883Z,100927.19
2023-02-08T21:24:40.607Z,100929.59
2023-02-08T21:25:44.258Z,100907.59
2023-02-08T21:26:48.050Z,100942.59
2023-02-08T21:27:51.852Z,100932.56
2023-02-08T21:28:56.754Z,100933.38
2023-02-08T21:30:00.440Z,100937.47
2023-02-08T21:31:07.665Z,100899.50
2023-02-08T21:32:11.456Z,100938.31
2023-02-08T21:33:16.812Z,100924.47
2023-02-08T21:34:21.124Z,100938.31
2023-02-08T21:35:24.929Z,100938.06
2023-02-08T21:36:28.957Z,100927.44
2023-02-08T21:37:34.946Z,100951.38
2023-02-08T21:38:39.029Z,100934.53
2023-02-08T21:39:42.804Z,100944.28
2023-02-08T21:40:46.828Z,100940.22
2023-02-08T21:41:52.667Z,100951.88
2023-02-08T21:42:56.298Z,100948.66
2023-02-08T21:44:01.209Z,100950.81
2023-02-08T21:45:05.288Z,100952.19
2023-02-08T21:46:09.968Z,100949.22
2023-02-08T21:47:13.669Z,100955.19
2023-02-08T21:48:18.966Z,100951.13
2023-02-08T21:49:22.654Z,100956.81
2023-02-08T21:50:26.264Z,100956.00
2023-02-08T21:51:29.899Z,100959.00
2023-02-08T21:52:33.574Z,100952.78
2023-02-08T21:53:37.167Z,100959.84
2023-02-08T21:54:40.809Z,100962.81
2023-02-08T21:55:47.028Z,100963.34
2023-02-08T21:56:50.912Z,100964.19
2023-02-08T21:57:55.041Z,100961.47
2023-02-08T21:58:58.713Z,100965.25
2023-02-08T22:00:02.302Z,100961.72
2023-02-08T22:01:06.120Z,100959.81
2023-02-08T22:02:13.904Z,100967.41
2023-02-08T22:03:19.319Z,100970.69
2023-02-08T22:04:23.002Z,100974.50
2023-02-08T22:05:26.745Z,100977.22
2023-02-08T22:06:30.410Z,100966.91
2023-02-08T22:07:43.362Z,100970.44
2023-02-08T22:08:47.018Z,100970.16
2023-02-08T22:09:50.970Z,100975.59
2023-02-08T22:10:58.445Z,100951.19
2023-02-08T22:12:02.440Z,100981.84
2023-02-08T22:13:06.088Z,100966.59
2023-02-08T22:14:09.895Z,100935.72
2023-02-08T22:15:16.133Z,100981.03
2023-02-08T22:16:19.887Z,100976.41
2023-02-08T22:17:23.833Z,100972.63
2023-02-08T22:18:29.241Z,100984.31
2023-02-08T22:19:32.970Z,100982.94
2023-02-08T22:20:36.647Z,100985.97
2023-02-08T22:21:40.336Z,100971.56
2023-02-08T22:22:44.029Z,100965.06
2023-02-08T22:23:47.879Z,100985.97
2023-02-08T22:24:51.559Z,100983.22
2023-02-08T22:25:55.226Z,100980.53
2023-02-08T22:27:01.556Z,100966.16
2023-02-08T22:28:05.285Z,100957.19
2023-02-08T22:29:09.022Z,100988.09
2023-02-08T22:30:14.536Z,100977.81
2023-02-08T22:31:18.509Z,100981.34
2023-02-08T22:32:22.311Z,100991.34
2023-02-08T22:33:26.065Z,100989.44
2023-02-08T22:34:31.483Z,101000.06
2023-02-08T22:35:35.126Z,100996.78
2023-02-08T22:36:38.764Z,100997.34
2023-02-08T22:37:42.858Z,100963.44
2023-02-08T22:38:46.561Z,100965.09
2023-02-08T22:39:50.271Z,100997.34
2023-02-08T22:40:53.945Z,100996.78
2023-02-08T22:41:57.727Z,100991.94
2023-02-08T22:43:01.549Z,100973.72
2023-02-08T22:44:05.440Z,101003.59
2023-02-08T22:45:10.408Z,100991.66
2023-02-08T22:46:14.204Z,101006.59
2023-02-08T22:47:17.878Z,101005.25
2023-02-08T22:48:21.600Z,101009.63
2023-02-08T22:49:25.445Z,100987.09
2023-02-08T22:50:30.850Z,101007.16
2023-02-08T22:51:34.563Z,101007.97
2023-02-08T22:52:38.382Z,101002.28
2023-02-08T22:53:42.284Z,101007.19
2023-02-08T22:54:45.975Z,100967.53
2023-02-08T22:55:50.884Z,101012.34
2023-02-08T22:56:54.715Z,100992.28
2023-02-08T22:57:58.411Z,101012.34
2023-02-08T22:59:02.198Z,101001.50
2023-02-08T23:00:08.442Z,101011.78
2023-02-08T23:01:12.833Z,101017.78
2023-02-08T23:02:16.547Z,101000.13
2023-02-08T23:03:20.164Z,101016.41
2023-02-08T23:04:23.939Z,101017.78
2023-02-08T23:05:29.340Z,101013.97
2023-02-08T23:06:33.056Z,101010.69
2023-02-08T23:07:36.689Z,101010.16
2023-02-08T23:08:40.452Z,100998.50
2023-02-08T23:09:44.229Z,101020.50
2023-02-08T23:10:48.054Z,101006.09
2023-02-08T23:11:51.977Z,101018.59
2023-02-08T23:12:55.774Z,101020.50
2023-02-08T23:13:59.526Z,101025.13
2023-02-08T23:15:03.333Z,101015.59
2023-02-08T23:16:07.533Z,101023.72
2023-02-08T23:17:11.332Z,101013.97
2023-02-08T23:18:15.068Z,101027.28
2023-02-08T23:19:19.958Z,101014.25
2023-02-08T23:20:23.739Z,101022.13
2023-02-08T23:21:29.303Z,101022.91
2023-02-08T23:22:33.077Z,100999.88
2023-02-08T23:23:37.492Z,101030.25
2023-02-08T23:24:41.213Z,101018.28
2023-02-08T23:25:44.826Z,101016.41
2023-02-08T23:26:48.541Z,101026.19
2023-02-08T23:27:52.313Z,101028.66
2023-02-08T23:28:56.019Z,101021.56
2023-02-08T23:29:59.765Z,101033.00
2023-02-08T23:31:06.969Z,101024.31
2023-02-08T23:32:10.831Z,101030.56
2023-02-08T23:33:14.688Z,101008.84
2023-02-08T23:34:18.737Z,101030.50
2023-02-08T23:35:22.611Z,101036.78
2023-02-08T23:36:26.337Z,101036.78
2023-02-08T23:37:31.687Z,101036.50
2023-02-08T23:38:35.603Z,101035.97
2023-02-08T23:39:39.321Z,101022.66
2023-02-08T23:40:43.417Z,101044.09
2023-02-08T23:41:47.311Z,101037.03
2023-02-08T23:42:51.019Z,101052.28
2023-02-08T23:43:54.879Z,101038.41
2023-02-08T23:45:00.453Z,101043.84
2023-02-08T23:46:07.810Z,101041.13
2023-02-08T23:47:11.613Z,101043.84
2023-02-08T23:48:15.467Z,101032.41
2023-02-08T23:49:19.239Z,101050.88
2023-02-08T23:50:23.024Z,101046.28
2023-02-08T23:51:27.480Z,101041.13
2023-02-08T23:52:33.944Z,101048.72
2023-02-08T23:53:38.731Z,101046.56
2023-02-08T23:54:42.611Z,101044.66
2023-02-08T23:56:00.137Z,101014.84
2023-02-08T23:57:04.680Z,101054.22
2023-02-08T23:58:08.913Z,100999.63
2023-02-08T23:59:13.426Z,101050.94
